Time;durP1;ratioP1;P1;durP2;ratioP2;P2;SDS_P1;SDS_P2;PMS_P1;PMS_P2;Temp;Humidity;BMP_temperature;BMP_pressure;BME280_temperature;BME280_humidity;BME280_pressure;Samples;Min_cycle;Max_cycle;Signal;HPM_P1;HPM_P2
2024/04/22 00:02:18;;;;;;;4.77;3.30;;;6.50;99.90;;;;;;5435523;26;20753;-60
2024/04/22 00:04:46;;;;;;;6.10;3.43;;;6.50;99.90;;;;;;5432841;26;20231;-61
2024/04/22 00:07:12;;;;;;;3.50;2.80;;;6.50;99.90;;;;;;5434463;26;20227;-61
2024/04/22 00:09:40;;;;;;;4.13;3.30;;;6.50;99.90;;;;;;5438999;26;20695;-61
2024/04/22 00:12:07;;;;;;;3.47;3.00;;;6.50;99.90;;;;;;5438415;26;20276;-60
2024/04/22 00:14:35;;;;;;;4.30;3.20;;;6.50;99.90;;;;;;5432815;26;20234;-60
2024/04/22 00:17:03;;;;;;;3.30;3.00;;;6.50;99.90;;;;;;5432692;26;20281;-63
2024/04/22 00:19:32;;;;;;;3.10;2.80;;;6.50;99.90;;;;;;5438367;26;20234;-61
2024/04/22 00:21:57;;;;;;;3.87;3.33;;;6.50;99.90;;;;;;5438444;26;20285;-62
2024/04/22 00:24:26;;;;;;;4.33;3.17;;;6.50;99.90;;;;;;5434413;26;20780;-61
2024/04/22 00:26:51;;;;;;;3.83;2.77;;;6.50;99.90;;;;;;5432652;26;20238;-62
2024/04/22 00:29:20;;;;;;;5.47;3.20;;;6.50;99.90;;;;;;5435254;26;20277;-62
2024/04/22 00:31:45;;;;;;;3.97;3.07;;;6.50;99.90;;;;;;5438138;26;20276;-62
2024/04/22 00:34:16;;;;;;;4.43;3.67;;;6.40;99.90;;;;;;5437479;26;20234;-61
2024/04/22 00:36:42;;;;;;;4.00;3.07;;;6.40;99.90;;;;;;5432522;26;20231;-61
2024/04/22 00:39:10;;;;;;;6.17;4.33;;;6.40;99.90;;;;;;5432547;26;20767;-61
2024/04/22 00:41:36;;;;;;;7.50;5.00;;;6.40;99.90;;;;;;5438194;26;20233;-61
2024/04/22 00:44:05;;;;;;;4.47;3.30;;;6.30;99.90;;;;;;5437887;26;20275;-61
2024/04/22 00:46:31;;;;;;;3.77;3.17;;;6.20;99.90;;;;;;5432068;26;20403;-61
2024/04/22 00:49:00;;;;;;;4.53;3.13;;;6.10;99.90;;;;;;5432457;26;20234;-59
2024/04/22 00:51:29;;;;;;;6.50;2.90;;;6.20;99.90;;;;;;5436268;26;20282;-61
2024/04/22 00:53:58;;;;;;;3.10;2.80;;;6.20;99.90;;;;;;5438331;26;20722;-62
2024/04/22 00:56:28;;;;;;;4.83;4.00;;;6.30;99.90;;;;;;5434360;26;20226;-62
2024/04/22 00:58:59;;;;;;;5.67;4.47;;;6.30;99.90;;;;;;5432271;26;20258;-62
2024/04/22 01:01:26;;;;;;;8.27;4.37;;;6.30;99.90;;;;;;5435643;26;20239;-62
2024/04/22 01:03:54;;;;;;;8.47;6.20;;;6.30;99.90;;;;;;5438403;26;20576;-62
2024/04/22 01:06:20;;;;;;;8.63;6.47;;;6.30;99.90;;;;;;5434850;26;20229;-62
2024/04/22 01:08:51;;;;;;;3.40;3.10;;;6.30;99.90;;;;;;5432066;26;20774;-62
2024/04/22 01:11:17;;;;;;;7.53;4.40;;;6.40;99.90;;;;;;5434065;26;20273;-62
2024/04/22 01:13:45;;;;;;;6.50;4.53;;;6.50;99.90;;;;;;5438136;26;20722;-63
2024/04/22 01:16:11;;;;;;;3.40;3.03;;;6.50;99.90;;;;;;5437192;26;20234;-62
2024/04/22 01:18:39;;;;;;;3.47;2.90;;;6.50;99.90;;;;;;5431949;26;20254;-62
2024/04/22 01:21:05;;;;;;;4.70;2.53;;;6.50;99.90;;;;;;5431529;26;20277;-61
2024/04/22 01:23:37;;;;;;;3.10;2.70;;;6.60;99.90;;;;;;5437856;26;20234;-61
2024/04/22 01:26:05;;;;;;;3.80;2.90;;;6.70;99.90;;;;;;5438059;26;20234;-61
2024/04/22 01:28:33;;;;;;;5.27;2.60;;;6.50;99.90;;;;;;5432337;26;20231;-62
2024/04/22 01:30:59;;;;;;;4.63;2.93;;;6.30;99.90;;;;;;5431244;26;20289;-63
2024/04/22 01:33:27;;;;;;;6.40;2.80;;;6.30;99.90;;;;;;5435856;26;20231;-63
2024/04/22 01:35:53;;;;;;;4.00;2.80;;;6.30;99.90;;;;;;5437791;26;20230;-61
2024/04/22 01:38:21;;;;;;;3.87;2.83;;;6.20;99.90;;;;;;5434851;26;20276;-61
2024/04/22 01:40:50;;;;;;;3.17;2.40;;;6.30;99.90;;;;;;5431297;26;20235;-61
2024/04/22 01:43:18;;;;;;;3.37;2.90;;;6.30;99.90;;;;;;5433188;26;20238;-62
2024/04/22 01:45:44;;;;;;;3.73;2.40;;;6.40;99.90;;;;;;5437615;26;20436;-60
2024/04/22 01:48:12;;;;;;;2.60;2.40;;;6.30;99.90;;;;;;5437374;26;20234;-61
2024/04/22 01:50:38;;;;;;;3.43;2.37;;;6.30;99.90;;;;;;5430242;26;20274;-60
2024/04/22 01:53:06;;;;;;;5.13;3.17;;;6.40;99.90;;;;;;5431341;26;20230;-60
2024/04/22 01:55:32;;;;;;;5.00;3.73;;;6.50;99.90;;;;;;5437006;26;20234;-60
2024/04/22 01:58:03;;;;;;;5.53;4.27;;;6.50;99.90;;;;;;5437527;26;20276;-63
2024/04/22 02:00:29;;;;;;;4.47;2.80;;;6.50;99.90;;;;;;5432091;26;20238;-62
2024/04/22 02:02:57;;;;;;;3.93;2.80;;;6.50;99.90;;;;;;5431364;26;20348;-60
2024/04/22 02:05:23;;;;;;;3.53;2.70;;;6.50;99.90;;;;;;5434271;26;20231;-62
2024/04/22 02:07:51;;;;;;;2.40;2.17;;;6.40;99.90;;;;;;5437451;26;20276;-61
2024/04/22 02:10:17;;;;;;;4.07;2.30;;;6.40;99.90;;;;;;5435418;26;20233;-62
2024/04/22 02:12:45;;;;;;;3.27;2.60;;;6.40;99.90;;;;;;5431169;26;20277;-63
2024/04/22 02:15:13;;;;;;;4.97;2.77;;;6.40;99.90;;;;;;5431177;26;20231;-60
2024/04/22 02:17:42;;;;;;;2.90;2.60;;;6.30;99.90;;;;;;5437216;26;20245;-63
2024/04/22 02:20:08;;;;;;;4.77;2.50;;;6.30;99.90;;;;;;5437025;26;20238;-61
2024/04/22 02:22:36;;;;;;;3.30;2.90;;;6.20;99.90;;;;;;5430644;26;20708;-61
2024/04/22 02:25:02;;;;;;;3.90;2.27;;;6.20;99.90;;;;;;5430929;26;20234;-63
2024/04/22 02:27:31;;;;;;;3.40;2.80;;;6.20;99.90;;;;;;5435360;26;20273;-63
2024/04/22 02:29:56;;;;;;;4.90;2.70;;;6.20;99.90;;;;;;5437243;26;20234;-61
2024/04/22 02:32:29;;;;;;;3.47;2.57;;;6.20;99.90;;;;;;5434926;26;20303;-61
2024/04/22 02:34:55;;;;;;;3.00;2.50;;;6.10;99.90;;;;;;5430932;26;20704;-60
2024/04/22 02:37:23;;;;;;;3.43;2.40;;;6.20;99.90;;;;;;5433241;26;20235;-62
2024/04/22 02:39:49;;;;;;;2.80;2.50;;;6.10;99.90;;;;;;5436978;26;20234;-61
2024/04/22 02:42:17;;;;;;;4.80;2.40;;;6.10;99.90;;;;;;5435438;26;20230;-63
2024/04/22 02:44:43;;;;;;;3.30;2.53;;;6.00;99.90;;;;;;5430951;26;20235;-61
2024/04/22 02:47:11;;;;;;;3.27;2.60;;;6.00;99.90;;;;;;5430907;26;20639;-61
2024/04/22 02:49:40;;;;;;;2.73;2.30;;;6.00;99.90;;;;;;5437232;26;20272;-62
2024/04/22 02:52:08;;;;;;;4.07;2.40;;;6.00;99.90;;;;;;5436540;26;20587;-61
2024/04/22 02:54:34;;;;;;;3.07;2.70;;;6.10;99.90;;;;;;5430783;26;20262;-61
2024/04/22 02:57:02;;;;;;;3.17;2.53;;;6.10;99.90;;;;;;5430384;26;20234;-61
2024/04/22 02:59:29;;;;;;;2.90;1.93;;;6.30;99.90;;;;;;5434579;26;20269;-62
2024/04/22 03:01:57;;;;;;;3.30;2.30;;;6.30;99.90;;;;;;5434592;26;20264;-61
2024/04/22 03:04:23;;;;;;;4.50;2.37;;;6.30;99.90;;;;;;5433399;26;20237;-61
2024/04/22 03:06:54;;;;;;;2.93;2.60;;;6.30;99.90;;;;;;5430326;26;20775;-61
2024/04/22 03:09:20;;;;;;;3.17;2.03;;;6.20;99.90;;;;;;5432505;26;20265;-61
2024/04/22 03:11:48;;;;;;;5.67;2.30;;;6.20;99.90;;;;;;5435894;26;20238;-61
2024/04/22 03:14:14;;;;;;;3.53;2.40;;;6.10;99.90;;;;;;5435483;26;20578;-61
2024/04/22 03:16:42;;;;;;;4.50;2.70;;;6.00;99.90;;;;;;5430107;26;20235;-61
2024/04/22 03:19:08;;;;;;;4.73;2.50;;;6.00;99.90;;;;;;5429917;26;20230;-61
2024/04/22 03:21:36;;;;;;;2.60;2.20;;;6.00;99.90;;;;;;5435047;26;20808;-60
2024/04/22 03:24:05;;;;;;;3.20;2.50;;;6.00;99.90;;;;;;5436634;26;20230;-61
2024/04/22 03:26:33;;;;;;;4.13;2.40;;;6.00;99.90;;;;;;5431379;26;20237;-62
2024/04/22 03:28:59;;;;;;;3.63;2.50;;;5.90;99.90;;;;;;5430030;26;20276;-61
2024/04/22 03:31:31;;;;;;;3.07;2.33;;;5.80;99.90;;;;;;5432708;26;20235;-62
2024/04/22 03:33:57;;;;;;;3.13;2.60;;;5.90;99.90;;;;;;5435780;26;20234;-60
2024/04/22 03:36:26;;;;;;;5.47;2.43;;;5.80;99.90;;;;;;5433191;26;20648;-61
2024/04/22 03:38:54;;;;;;;4.43;2.77;;;5.80;99.90;;;;;;5429886;26;20704;-61
2024/04/22 03:41:27;;;;;;;2.97;2.37;;;5.70;99.90;;;;;;5430872;26;20235;-62
2024/04/22 03:43:55;;;;;;;4.00;2.60;;;5.70;99.90;;;;;;5435817;26;20265;-61
2024/04/22 03:51:52;;;;;;;3.20;2.60;;;5.20;99.90;;;;;;5426119;26;20276;-61
2024/04/22 03:54:21;;;;;;;3.20;2.67;;;5.00;99.90;;;;;;5434356;26;20230;-63
2024/04/22 03:56:52;;;;;;;2.93;2.13;;;4.90;99.90;;;;;;5429451;26;20338;-60
2024/04/22 03:59:20;;;;;;;9.73;2.80;;;4.80;99.90;;;;;;5430797;26;20291;-61
2024/04/22 04:01:46;;;;;;;3.27;2.47;;;4.80;99.90;;;;;;5434821;26;20238;-61
2024/04/22 04:04:14;;;;;;;3.87;2.70;;;4.60;99.90;;;;;;5435400;26;20241;-60
2024/04/22 04:06:40;;;;;;;3.10;2.33;;;4.50;99.90;;;;;;5435722;26;20264;-61
2024/04/22 04:09:08;;;;;;;4.60;2.60;;;4.30;99.90;;;;;;5435728;26;20234;-61
2024/04/22 04:11:37;;;;;;;3.90;2.77;;;4.30;99.90;;;;;;5430199;26;20235;-61
2024/04/22 04:14:08;;;;;;;2.80;2.23;;;4.20;99.90;;;;;;5432513;26;20567;-61
2024/04/22 04:16:34;;;;;;;3.87;2.67;;;4.10;99.90;;;;;;5438831;26;20273;-61
2024/04/22 04:19:03;;;;;;;4.13;2.70;;;4.00;99.90;;;;;;5439573;26;20277;-61
2024/04/22 04:21:28;;;;;;;2.77;2.50;;;4.00;99.90;;;;;;5435617;26;20234;-61
2024/04/22 04:23:57;;;;;;;4.07;2.50;;;4.00;99.90;;;;;;5433803;26;20266;-63
2024/04/22 04:26:23;;;;;;;4.27;2.40;;;3.90;99.90;;;;;;5435794;26;20234;-61
2024/04/22 04:28:52;;;;;;;3.57;2.30;;;4.00;99.90;;;;;;5439858;26;20574;-62
2024/04/22 04:31:20;;;;;;;3.37;2.20;;;4.00;99.90;;;;;;5438032;26;20280;-60
2024/04/22 04:33:48;;;;;;;3.13;2.70;;;4.00;99.90;;;;;;5433510;26;20824;-62
2024/04/22 04:36:14;;;;;;;4.30;2.53;;;3.90;99.90;;;;;;5434117;26;20694;-60
2024/04/22 04:38:42;;;;;;;4.77;2.50;;;3.80;99.90;;;;;;5439883;26;20230;-60
2024/04/22 04:41:08;;;;;;;5.10;2.53;;;3.80;99.90;;;;;;5439198;26;20234;-61
2024/04/22 04:43:37;;;;;;;3.87;2.60;;;3.80;99.90;;;;;;5434325;26;20299;-62
2024/04/22 04:46:02;;;;;;;3.90;2.60;;;3.90;99.90;;;;;;5433527;26;20277;-61
2024/04/22 04:48:33;;;;;;;5.03;2.77;;;3.90;99.90;;;;;;5436704;26;20238;-62
2024/04/22 04:50:59;;;;;;;5.40;2.90;;;4.00;99.90;;;;;;5439190;26;20233;-62
2024/04/22 04:53:28;;;;;;;4.90;2.90;;;4.10;99.90;;;;;;5436794;26;20238;-62
2024/04/22 04:55:54;;;;;;;2.80;2.33;;;4.10;99.90;;;;;;5433381;26;20231;-61
2024/04/22 04:58:22;;;;;;;2.83;2.50;;;4.00;99.90;;;;;;5434172;26;20770;-61
2024/04/22 05:00:48;;;;;;;2.80;2.23;;;4.10;99.90;;;;;;5476635;21;20268;-56
2024/04/22 05:03:16;;;;;;;4.40;2.53;;;4.20;99.90;;;;;;5489134;26;20635;-57
2024/04/22 05:05:45;;;;;;;3.67;2.50;;;4.20;99.90;;;;;;5475214;26;20549;-54
2024/04/22 05:08:13;;;;;;;2.87;2.53;;;4.30;99.90;;;;;;5489371;26;20263;-55
2024/04/22 05:10:39;;;;;;;2.97;2.33;;;4.50;99.90;;;;;;5482859;26;20238;-54
2024/04/22 05:13:07;;;;;;;3.63;2.80;;;4.50;99.90;;;;;;5468194;26;20278;-55
2024/04/22 05:15:33;;;;;;;3.40;2.50;;;4.60;99.90;;;;;;5472765;26;20398;-54
2024/04/22 05:18:01;;;;;;;3.53;3.03;;;4.60;99.90;;;;;;5474263;26;20583;-55
2024/04/22 05:20:29;;;;;;;3.37;2.60;;;4.70;99.90;;;;;;5470998;26;20268;-57
2024/04/22 05:23:00;;;;;;;3.77;2.60;;;4.80;99.90;;;;;;5467722;26;20708;-57
2024/04/22 05:25:26;;;;;;;3.90;2.30;;;4.80;99.90;;;;;;5469181;26;20281;-58
2024/04/22 05:27:55;;;;;;;3.83;3.17;;;4.90;99.90;;;;;;5474217;26;20233;-54
2024/04/22 05:30:21;;;;;;;9.70;3.20;;;5.00;99.90;;;;;;5472421;26;20362;-57
2024/04/22 05:32:49;;;;;;;5.13;2.37;;;5.20;99.90;;;;;;5467248;26;20634;-57
2024/04/22 05:38:05;;;;;;;3.80;2.43;;;5.50;99.90;;;;;;5476465;26;20772;-57
2024/04/22 05:40:33;;;;;;;2.83;2.10;;;5.60;99.90;;;;;;5469344;26;20753;-55
2024/04/22 05:43:01;;;;;;;7.27;2.50;;;5.80;99.90;;;;;;5467714;26;20337;-55
2024/04/22 05:45:30;;;;;;;2.70;2.30;;;6.90;99.90;;;;;;5470452;26;20268;-55
2024/04/22 05:47:59;;;;;;;5.80;4.23;;;8.60;99.90;;;;;;5473895;26;20288;-55
2024/04/22 05:50:27;;;;;;;2.57;2.23;;;9.60;99.90;;;;;;5471124;26;20275;-55
2024/04/22 05:52:55;;;;;;;3.20;2.50;;;9.70;99.90;;;;;;5467517;26;20328;-56
2024/04/22 05:55:26;;;;;;;2.50;2.23;;;9.50;99.90;;;;;;5468030;26;20230;-55
2024/04/22 05:57:52;;;;;;;6.50;2.20;;;9.20;99.90;;;;;;5473370;26;20271;-56
2024/04/22 06:00:20;;;;;;;3.40;2.40;;;9.20;99.90;;;;;;5472962;26;20229;-55
2024/04/22 06:02:46;;;;;;;5.30;2.30;;;9.00;99.90;;;;;;5467040;26;20226;-55
2024/04/22 06:05:14;;;;;;;3.33;2.17;;;8.70;99.90;;;;;;5467265;26;20233;-55
2024/04/22 06:07:40;;;;;;;3.37;2.17;;;8.60;99.90;;;;;;5473534;26;20271;-55
2024/04/22 06:10:10;;;;;;;3.27;2.20;;;8.90;99.90;;;;;;5473724;26;20578;-54
2024/04/22 06:12:38;;;;;;;3.07;1.93;;;10.20;99.90;;;;;;5473200;26;20332;-54
2024/04/22 06:15:07;;;;;;;3.67;2.03;;;11.60;99.70;;;;;;5473177;26;20276;-56
2024/04/22 06:17:33;;;;;;;3.23;1.83;;;12.70;98.70;;;;;;5469025;26;20224;-55
2024/04/22 06:20:01;;;;;;;2.40;2.00;;;14.40;96.10;;;;;;5467327;26;20593;-55
2024/04/22 06:22:27;;;;;;;3.80;2.40;;;15.80;92.20;;;;;;5469580;26;20276;-55
2024/04/22 06:24:55;;;;;;;2.50;1.92;;;16.60;91.30;;;;;;5473202;26;20658;-55
2024/04/22 06:27:21;;;;;;;4.60;2.42;;;17.60;87.40;;;;;;5472408;26;20745;-55
2024/04/22 06:29:52;;;;;;;2.92;1.90;;;18.10;80.90;;;;;;5467058;26;20234;-55
2024/04/22 06:32:18;;;;;;;2.83;1.90;;;18.10;79.40;;;;;;5466365;26;20230;-56
2024/04/22 06:34:46;;;;;;;2.95;2.00;;;18.00;79.60;;;;;;5472671;26;20275;-56
2024/04/22 06:37:12;;;;;;;3.35;2.00;;;18.20;77.20;;;;;;5473927;26;20229;-55
2024/04/22 06:39:40;;;;;;;2.30;1.90;;;18.20;75.30;;;;;;5471254;26;20271;-54
2024/04/22 06:42:06;;;;;;;3.28;1.70;;;17.80;75.90;;;;;;5472103;26;20228;-54
2024/04/22 06:44:34;;;;;;;2.40;1.70;;;18.00;73.20;;;;;;5456899;26;20311;-55
2024/04/22 06:47:03;;;;;;;3.38;1.80;;;17.90;73.50;;;;;;5472239;26;20259;-54
2024/04/22 06:49:32;;;;;;;3.05;1.80;;;17.90;72.10;;;;;;5469744;26;20245;-54
2024/04/22 06:51:58;;;;;;;2.53;1.70;;;18.00;73.10;;;;;;5465745;26;20322;-54
2024/04/22 06:54:26;;;;;;;2.63;2.00;;;18.90;71.70;;;;;;5468221;26;20727;-54
2024/04/22 06:56:52;;;;;;;2.08;1.65;;;19.50;67.70;;;;;;5472953;26;20256;-55
2024/04/22 06:59:20;;;;;;;2.35;1.67;;;18.40;67.20;;;;;;5472534;26;20236;-56
2024/04/22 07:01:46;;;;;;;2.08;1.83;;;17.00;69.30;;;;;;5465656;26;20242;-58
2024/04/22 07:04:17;;;;;;;2.40;2.20;;;15.70;71.30;;;;;;5466410;26;20275;-54
2024/04/22 07:06:43;;;;;;;3.10;1.90;;;14.50;74.40;;;;;;5472129;26;20233;-54
2024/04/22 07:09:16;;;;;;;5.90;2.30;;;13.20;77.70;;;;;;5472357;26;20345;-55
2024/04/22 07:11:42;;;;;;;3.70;1.90;;;12.30;80.10;;;;;;5465853;26;20242;-53
2024/04/22 07:14:11;;;;;;;3.53;2.17;;;11.70;83.10;;;;;;5466005;26;20242;-53
2024/04/22 07:16:40;;;;;;;1.97;1.73;;;11.40;84.60;;;;;;5469739;26;20803;-54
2024/04/22 07:19:09;;;;;;;3.77;2.10;;;11.50;85.60;;;;;;5471911;26;20678;-55
2024/04/22 07:21:37;;;;;;;2.80;2.03;;;12.50;83.20;;;;;;5467207;26;20232;-62
2024/04/22 07:24:05;;;;;;;1.83;1.57;;;13.10;80.10;;;;;;5465936;26;20237;-57
2024/04/22 07:26:31;;;;;;;3.30;2.00;;;12.50;80.20;;;;;;5469057;26;20234;-56
2024/04/22 07:29:00;;;;;;;4.27;1.80;;;11.70;81.80;;;;;;5472048;26;20280;-56
2024/04/22 07:31:26;;;;;;;1.80;1.60;;;11.30;83.70;;;;;;5469767;26;20267;-56
2024/04/22 07:33:55;;;;;;;4.67;1.93;;;10.80;84.90;;;;;;5465189;26;20338;-55
2024/04/22 07:36:30;;;;;;;2.17;1.97;;;10.50;86.50;;;;;;5465730;26;20351;-60
2024/04/22 07:39:04;;;;;;;5.57;2.27;;;10.30;88.70;;;;;;5471897;26;20236;-57
2024/04/22 07:41:30;;;;;;;4.13;2.17;;;10.10;89.40;;;;;;5468511;26;20245;-57
2024/04/22 07:43:58;;;;;;;2.77;2.30;;;9.90;91.20;;;;;;5465158;26;20238;-56
2024/04/22 07:46:24;;;;;;;2.93;2.43;;;9.70;91.30;;;;;;5465888;26;20234;-57
2024/04/22 07:48:53;;;;;;;7.83;2.33;;;9.60;91.50;;;;;;5474136;26;20313;-56
2024/04/22 07:51:19;;;;;;;2.20;2.00;;;9.70;91.30;;;;;;5475226;26;20300;-57
2024/04/22 07:53:47;;;;;;;2.80;1.90;;;9.90;91.40;;;;;;5469144;26;20314;-56
2024/04/22 07:56:17;;;;;;;2.70;1.90;;;10.00;90.60;;;;;;5468750;26;20231;-58
2024/04/22 07:58:47;;;;;;;2.83;1.77;;;10.10;90.50;;;;;;5474720;26;20271;-56
2024/04/22 08:01:13;;;;;;;6.30;2.47;;;10.00;90.80;;;;;;5474610;26;20241;-55
2024/04/22 08:03:42;;;;;;;2.10;1.90;;;10.20;90.70;;;;;;5470218;26;20233;-55
2024/04/22 08:06:10;;;;;;;3.40;2.10;;;10.30;90.70;;;;;;5468394;26;20307;-56
2024/04/22 08:08:41;;;;;;;2.53;1.70;;;10.50;90.40;;;;;;5472401;26;20233;-55
2024/04/22 08:11:07;;;;;;;2.90;1.70;;;10.70;89.70;;;;;;5474424;26;20233;-55
2024/04/22 08:13:38;;;;;;;3.60;2.00;;;10.80;89.00;;;;;;5471606;26;20557;-55
2024/04/22 08:16:04;;;;;;;2.67;2.17;;;11.00;89.10;;;;;;5468611;26;20230;-57
2024/04/22 08:18:33;;;;;;;3.33;1.70;;;11.40;88.60;;;;;;5470142;26;20275;-56
2024/04/22 08:20:59;;;;;;;2.43;1.80;;;12.00;84.50;;;;;;5474189;26;20232;-55
2024/04/22 08:23:27;;;;;;;2.63;1.67;;;12.20;84.40;;;;;;5473709;26;20271;-55
2024/04/22 08:25:53;;;;;;;5.13;1.80;;;12.30;84.10;;;;;;5467940;26;20280;-56
2024/04/22 08:28:22;;;;;;;2.47;1.90;;;12.00;82.70;;;;;;5468206;26;20226;-56
2024/04/22 08:31:02;;;;;;;3.73;2.00;;;11.50;83.30;;;;;;5453662;26;20237;-55
2024/04/22 08:33:27;;;;;;;2.50;2.07;;;11.20;84.10;;;;;;5469835;26;20723;-56
2024/04/22 08:35:56;;;;;;;4.20;2.30;;;10.60;84.40;;;;;;5474445;26;20233;-57
2024/04/22 08:38:22;;;;;;;2.50;2.23;;;10.10;85.40;;;;;;5473874;26;20271;-57
2024/04/22 08:40:50;;;;;;;3.67;2.10;;;9.80;88.00;;;;;;5467746;26;20237;-56
2024/04/22 08:43:17;;;;;;;2.37;2.07;;;9.70;89.00;;;;;;5467624;26;20276;-58
2024/04/22 08:45:47;;;;;;;4.27;2.70;;;9.50;89.70;;;;;;5473047;26;20336;-57
2024/04/22 08:48:15;;;;;;;2.20;2.00;;;9.50;90.50;;;;;;5473810;26;20267;-56
2024/04/22 08:50:44;;;;;;;2.73;2.00;;;9.50;90.50;;;;;;5468551;26;20233;-56
2024/04/22 08:53:11;;;;;;;4.83;3.10;;;9.70;90.70;;;;;;5468259;26;20341;-56
2024/04/22 08:55:40;;;;;;;4.60;2.17;;;10.10;90.40;;;;;;5472015;26;20350;-56
2024/04/22 08:58:07;;;;;;;3.27;2.37;;;10.50;90.30;;;;;;5474313;26;20709;-56
2024/04/22 09:00:35;;;;;;;3.33;2.37;;;10.70;88.70;;;;;;5468902;26;20285;-58
2024/04/22 09:03:01;;;;;;;2.17;1.97;;;10.80;89.30;;;;;;5467804;26;20234;-56
2024/04/22 09:05:33;;;;;;;3.07;1.93;;;10.90;88.90;;;;;;5468975;26;20281;-56
2024/04/22 09:08:00;;;;;;;3.83;2.97;;;10.70;87.80;;;;;;5474326;26;20229;-56
2024/04/22 09:10:29;;;;;;;2.30;2.10;;;10.60;88.50;;;;;;5472811;26;20237;-56
2024/04/22 09:12:55;;;;;;;5.37;2.07;;;10.80;90.20;;;;;;5467597;26;20230;-57
2024/04/22 09:15:24;;;;;;;3.20;1.90;;;10.90;87.20;;;;;;5467456;26;20280;-56
2024/04/22 09:17:50;;;;;;;2.37;1.90;;;11.00;86.50;;;;;;5468285;26;20768;-56
2024/04/22 09:20:21;;;;;;;2.13;1.77;;;11.10;87.20;;;;;;5468029;26;20238;-56
2024/04/22 09:22:50;;;;;;;6.40;1.80;;;11.10;86.90;;;;;;5452796;26;20234;-57
2024/04/22 09:25:19;;;;;;;1.87;1.70;;;11.20;86.50;;;;;;5465021;26;20237;-59
2024/04/22 09:27:47;;;;;;;1.90;1.70;;;11.30;86.60;;;;;;5472387;26;20239;-66
2024/04/22 09:30:16;;;;;;;2.50;1.93;;;11.40;87.20;;;;;;5474056;26;20710;-59
2024/04/22 09:32:44;;;;;;;3.40;1.97;;;11.30;86.80;;;;;;5467727;26;20722;-63
2024/04/22 09:35:16;;;;;;;3.20;1.70;;;11.40;87.20;;;;;;5466894;26;20233;-64
2024/04/22 09:37:43;;;;;;;2.00;1.60;;;11.80;84.80;;;;;;5471760;26;20569;-64
2024/04/22 09:40:15;;;;;;;4.17;2.00;;;12.00;83.50;;;;;;5460754;26;20265;-65
2024/04/22 09:42:42;;;;;;;2.23;1.70;;;12.10;83.10;;;;;;5471091;26;20268;-65
2024/04/22 09:45:11;;;;;;;3.60;1.90;;;12.20;82.90;;;;;;5473201;26;20659;-63
2024/04/22 09:47:40;;;;;;;2.17;1.70;;;12.50;82.60;;;;;;5469767;26;20267;-65
2024/04/22 09:50:09;;;;;;;2.20;1.80;;;12.70;81.10;;;;;;5466965;26;20234;-64
2024/04/22 09:52:36;;;;;;;2.00;1.60;;;12.90;79.20;;;;;;5469622;26;20727;-62
2024/04/22 09:55:05;;;;;;;1.67;1.47;;;13.00;77.80;;;;;;5473764;26;20232;-62
2024/04/22 09:57:37;;;;;;;2.10;1.90;;;13.00;79.30;;;;;;5470960;26;20236;-63
2024/04/22 10:00:06;;;;;;;1.70;1.53;;;13.10;78.70;;;;;;5461957;26;20275;-64
2024/04/22 10:02:32;;;;;;;1.93;1.47;;;12.90;79.30;;;;;;5470833;26;20772;-63
2024/04/22 10:05:00;;;;;;;3.60;1.80;;;12.80;79.10;;;;;;5467325;26;20230;-66
2024/04/22 10:07:26;;;;;;;3.23;1.60;;;12.70;77.20;;;;;;5467004;26;20343;-62
2024/04/22 10:09:57;;;;;;;1.60;1.43;;;12.60;78.40;;;;;;5472567;26;20255;-63
2024/04/22 10:12:24;;;;;;;3.40;1.40;;;12.80;77.80;;;;;;5471779;26;20709;-59
2024/04/22 10:15:08;;;;;;;1.60;1.50;;;13.10;78.80;;;;;;5458470;26;20233;-62
2024/04/22 10:17:34;;;;;;;2.70;1.37;;;13.30;75.90;;;;;;5470236;26;20268;-61
2024/04/22 10:20:03;;;;;;;1.77;1.30;;;13.20;75.90;;;;;;5467152;26;20233;-61
2024/04/22 10:22:32;;;;;;;1.57;1.37;;;13.20;77.50;;;;;;5466799;26;20230;-62
2024/04/22 10:25:02;;;;;;;1.80;1.40;;;13.40;75.10;;;;;;5472863;26;20332;-61
2024/04/22 10:27:28;;;;;;;4.27;1.80;;;13.50;76.00;;;;;;5471460;26;20714;-63
2024/04/22 10:30:00;;;;;;;3.10;1.40;;;13.60;76.50;;;;;;5466845;26;20242;-62
2024/04/22 10:32:26;;;;;;;2.00;1.40;;;13.40;76.50;;;;;;5466321;26;20226;-61
2024/04/22 10:34:55;;;;;;;1.87;1.57;;;13.00;73.80;;;;;;5473241;26;20617;-60
2024/04/22 10:37:21;;;;;;;1.37;1.27;;;12.80;75.70;;;;;;5472470;26;20275;-63
2024/04/22 10:39:50;;;;;;;3.40;1.63;;;12.70;76.70;;;;;;5467104;26;20606;-64
2024/04/22 10:42:17;;;;;;;2.77;1.77;;;12.40;77.30;;;;;;5466515;26;20230;-60
2024/04/22 10:44:47;;;;;;;2.33;1.63;;;12.20;77.10;;;;;;5471372;26;20723;-57
2024/04/22 10:47:15;;;;;;;2.30;1.60;;;12.10;78.40;;;;;;5473136;26;20263;-57
2024/04/22 10:49:44;;;;;;;1.90;1.70;;;12.10;78.40;;;;;;5468870;26;20276;-56
2024/04/22 10:52:10;;;;;;;1.57;1.30;;;12.30;77.30;;;;;;5466299;26;20229;-56
2024/04/22 10:54:38;;;;;;;2.07;1.70;;;12.40;78.00;;;;;;5468901;26;20233;-56
2024/04/22 10:57:04;;;;;;;1.60;1.47;;;12.60;77.20;;;;;;5472625;26;20281;-56
2024/04/22 10:59:33;;;;;;;1.40;1.30;;;12.80;77.60;;;;;;5470983;26;20237;-57
2024/04/22 11:01:58;;;;;;;2.50;1.57;;;13.00;76.50;;;;;;5466015;26;20277;-57
2024/04/22 11:04:31;;;;;;;1.90;1.50;;;13.00;75.60;;;;;;5466476;26;20230;-57
2024/04/22 11:06:57;;;;;;;4.10;1.80;;;13.00;75.50;;;;;;5453213;26;20230;-57
2024/04/22 11:09:26;;;;;;;1.90;1.60;;;12.80;74.30;;;;;;5466165;26;20237;-57
2024/04/22 11:11:52;;;;;;;1.70;1.50;;;12.70;73.40;;;;;;5451146;26;20234;-56
2024/04/22 11:14:20;;;;;;;1.43;1.20;;;12.60;71.50;;;;;;5465921;26;20338;-57
2024/04/22 11:16:46;;;;;;;2.37;1.60;;;12.50;72.40;;;;;;5470861;26;20746;-57
2024/04/22 11:19:14;;;;;;;3.10;1.50;;;12.50;73.50;;;;;;5472327;26;20303;-56
2024/04/22 11:21:44;;;;;;;2.00;1.50;;;12.60;73.20;;;;;;5467052;26;20282;-55
2024/04/22 11:24:13;;;;;;;1.50;1.30;;;12.70;74.10;;;;;;5465026;26;20635;-58
2024/04/22 11:26:39;;;;;;;1.87;1.30;;;12.80;75.20;;;;;;5468694;26;20230;-58
2024/04/22 11:29:08;;;;;;;1.80;1.70;;;12.60;73.80;;;;;;5472010;26;20271;-58
2024/04/22 11:31:37;;;;;;;2.10;1.70;;;12.60;78.30;;;;;;5469079;26;20237;-58
2024/04/22 11:34:08;;;;;;;1.90;1.70;;;12.40;78.80;;;;;;5465482;26;20238;-58
2024/04/22 11:36:35;;;;;;;3.20;1.60;;;12.30;80.60;;;;;;5467811;26;20355;-59
2024/04/22 11:39:13;;;;;;;1.60;1.50;;;12.40;80.90;;;;;;5471740;26;20279;-58
2024/04/22 11:41:40;;;;;;;1.60;1.30;;;12.30;81.90;;;;;;5467898;26;20286;-58
2024/04/22 11:44:08;;;;;;;3.03;1.50;;;12.40;81.10;;;;;;5465499;26;20226;-57
2024/04/22 11:46:34;;;;;;;2.43;1.60;;;12.70;80.20;;;;;;5467333;26;20230;-59
2024/04/22 11:49:02;;;;;;;2.60;1.73;;;12.90;76.80;;;;;;5471393;26;20295;-60
2024/04/22 11:51:28;;;;;;;1.87;1.40;;;12.90;77.50;;;;;;5471249;26;20284;-58
2024/04/22 11:53:56;;;;;;;1.97;1.40;;;13.10;76.30;;;;;;5465881;26;20237;-59
2024/04/22 11:56:29;;;;;;;1.83;1.33;;;13.40;75.90;;;;;;5465376;26;20230;-57
2024/04/22 11:58:58;;;;;;;1.50;1.40;;;13.80;71.50;;;;;;5451292;26;20268;-57
2024/04/22 12:01:24;;;;;;;5.33;2.30;;;13.80;71.20;;;;;;5464825;26;20234;-57
2024/04/22 12:03:52;;;;;;;1.50;1.40;;;13.80;72.30;;;;;;5471011;26;20241;-57
2024/04/22 12:06:18;;;;;;;1.93;1.53;;;13.80;72.10;;;;;;5471827;26;20271;-61
2024/04/22 12:08:46;;;;;;;2.40;1.40;;;13.80;70.10;;;;;;5467595;26;20232;-57
2024/04/22 12:11:12;;;;;;;1.47;1.33;;;13.80;68.90;;;;;;5465061;26;20297;-61
2024/04/22 12:13:43;;;;;;;2.00;1.50;;;13.80;68.90;;;;;;5467376;26;20572;-60
2024/04/22 12:16:12;;;;;;;2.73;1.70;;;13.80;71.20;;;;;;5471041;26;20259;-59
2024/04/22 12:18:38;;;;;;;3.87;1.57;;;14.00;73.70;;;;;;5468524;26;20229;-57
2024/04/22 12:21:07;;;;;;;1.57;1.43;;;13.90;76.00;;;;;;5465131;26;20604;-57
2024/04/22 12:23:32;;;;;;;1.70;1.30;;;13.40;77.00;;;;;;5465978;26;20616;-60
2024/04/22 12:26:01;;;;;;;2.50;1.60;;;13.10;78.10;;;;;;5471148;26;20233;-57
2024/04/22 12:28:26;;;;;;;2.03;1.70;;;13.20;76.50;;;;;;5471377;26;20228;-61
2024/04/22 12:30:57;;;;;;;2.03;1.50;;;13.70;75.80;;;;;;5464576;26;20242;-58
2024/04/22 12:33:23;;;;;;;1.77;1.60;;;13.70;76.90;;;;;;5465274;26;20289;-57
2024/04/22 12:35:51;;;;;;;2.30;1.70;;;13.60;75.70;;;;;;5473756;26;20324;-59
2024/04/22 12:38:17;;;;;;;1.70;1.60;;;13.40;75.20;;;;;;5474764;26;20294;-58
2024/04/22 12:40:46;;;;;;;1.63;1.53;;;13.20;76.40;;;;;;5470304;26;20715;-58
2024/04/22 12:43:12;;;;;;;2.10;1.57;;;13.00;78.60;;;;;;5468606;26;20264;-59
2024/04/22 12:45:43;;;;;;;2.13;1.60;;;13.00;77.50;;;;;;5470706;26;20234;-57
2024/04/22 12:50:58;;;;;;;2.00;1.80;;;13.00;78.50;;;;;;5455598;26;20280;-58
2024/04/22 12:53:27;;;;;;;1.70;1.60;;;13.00;78.30;;;;;;5468084;26;20367;-57
2024/04/22 12:55:55;;;;;;;2.50;1.70;;;13.40;78.50;;;;;;5474002;26;20732;-58
2024/04/22 12:58:23;;;;;;;1.73;1.40;;;13.40;77.90;;;;;;5474178;26;20714;-58
2024/04/22 13:00:52;;;;;;;2.07;1.60;;;13.50;78.10;;;;;;5468714;26;20241;-60
2024/04/22 13:03:23;;;;;;;2.87;1.60;;;13.30;76.10;;;;;;5468081;26;20234;-58
2024/04/22 13:05:51;;;;;;;2.00;1.80;;;13.10;75.60;;;;;;5473246;26;20343;-58
2024/04/22 13:08:20;;;;;;;1.80;1.30;;;13.00;75.30;;;;;;5474052;26;20264;-59